createdAt,value
2019-03-16T00:01:12.799Z,5.60
2019-03-16T00:03:41.345Z,8.53
2019-03-16T00:06:11.643Z,9.13
2019-03-16T00:08:40.475Z,5.63
2019-03-16T00:11:10.679Z,8.17
2019-03-16T00:13:39.591Z,8.27
2019-03-16T00:16:08.684Z,8.40
2019-03-16T00:18:37.121Z,10.83
2019-03-16T00:21:06.232Z,6.43
2019-03-16T00:23:36.046Z,7.40
2019-03-16T00:26:07.395Z,7.90
2019-03-16T00:28:36.870Z,6.07
2019-03-16T00:31:05.409Z,5.23
2019-03-16T00:33:36.943Z,7.27
2019-03-16T00:36:07.077Z,10.27
2019-03-16T00:38:36.076Z,8.50
2019-03-16T00:41:05.175Z,5.53
2019-03-16T00:43:35.509Z,6.93
2019-03-16T00:46:04.995Z,7.13
2019-03-16T00:48:34.905Z,9.27
2019-03-16T00:51:04.807Z,8.40
2019-03-16T00:53:35.133Z,8.13
2019-03-16T00:56:05.449Z,7.33
2019-03-16T00:58:35.975Z,8.17
2019-03-16T01:01:05.294Z,9.47
2019-03-16T01:03:34.570Z,7.90
2019-03-16T01:06:03.948Z,8.30
2019-03-16T01:08:33.257Z,9.23
2019-03-16T01:11:03.089Z,7.30
2019-03-16T01:13:32.597Z,9.37
2019-03-16T01:16:01.983Z,7.83
2019-03-16T01:18:32.431Z,7.27
2019-03-16T01:21:01.638Z,10.53
2019-03-16T01:23:31.182Z,6.70
2019-03-16T01:26:01.615Z,7.60
2019-03-16T01:28:30.453Z,9.83
2019-03-16T01:30:59.843Z,10.10
2019-03-16T01:33:29.204Z,10.47
2019-03-16T01:36:03.608Z,14.10
2019-03-16T01:38:36.107Z,22.47
2019-03-16T01:41:05.098Z,17.43
2019-03-16T01:43:34.702Z,21.33
2019-03-16T01:46:04.675Z,21.10
2019-03-16T01:48:34.655Z,26.00
2019-03-16T01:51:03.663Z,23.60
2019-03-16T01:53:33.212Z,26.43
2019-03-16T01:56:02.727Z,19.10
2019-03-16T01:58:31.700Z,19.73
2019-03-16T02:01:01.524Z,21.77
2019-03-16T02:03:32.560Z,27.93
2019-03-16T02:06:01.548Z,24.47
2019-03-16T02:08:31.768Z,25.43
2019-03-16T02:11:01.736Z,15.67
2019-03-16T02:13:31.230Z,19.20
2019-03-16T02:16:10.396Z,18.43
2019-03-16T02:18:31.866Z,21.37
2019-03-16T02:21:00.899Z,17.70
2019-03-16T02:23:30.926Z,24.77
2019-03-16T02:26:00.864Z,26.57
2019-03-16T02:28:30.122Z,23.40
2019-03-16T02:31:00.482Z,23.13
2019-03-16T02:33:29.497Z,28.17
2019-03-16T02:35:58.865Z,26.97
2019-03-16T02:38:27.759Z,24.83
2019-03-16T02:40:59.441Z,24.77
2019-03-16T02:43:29.088Z,21.87
2019-03-16T02:45:58.017Z,26.90
2019-03-16T02:48:27.153Z,19.93
2019-03-16T02:50:56.977Z,33.30
2019-03-16T02:53:25.762Z,16.47
2019-03-16T02:55:55.411Z,30.37
2019-03-16T02:58:24.000Z,22.70
2019-03-16T03:00:53.696Z,27.77
2019-03-16T03:03:29.143Z,19.87
2019-03-16T03:05:55.239Z,20.87
2019-03-16T03:08:25.162Z,21.63
2019-03-16T03:10:54.959Z,18.20
2019-03-16T03:13:26.411Z,17.43
2019-03-16T03:15:56.530Z,19.60
2019-03-16T03:18:26.127Z,20.47
2019-03-16T03:20:55.436Z,25.37
2019-03-16T03:23:24.227Z,31.40
2019-03-16T03:25:55.256Z,21.13
2019-03-16T03:28:25.141Z,21.97
2019-03-16T03:30:56.288Z,19.40
2019-03-16T03:33:27.038Z,20.47
2019-03-16T03:35:57.583Z,21.87
2019-03-16T03:38:27.322Z,21.27
2019-03-16T03:41:01.485Z,16.27
2019-03-16T03:43:29.428Z,24.37
2019-03-16T03:45:59.277Z,14.80
2019-03-16T03:48:28.689Z,20.37
2019-03-16T03:50:58.725Z,19.37
2019-03-16T03:53:28.512Z,22.77
2019-03-16T03:55:59.452Z,20.37
2019-03-16T03:58:28.640Z,20.73
2019-03-16T04:00:58.793Z,21.37
2019-03-16T04:03:30.008Z,19.63
2019-03-16T04:05:59.937Z,19.10
2019-03-16T04:08:29.913Z,21.73
2019-03-16T04:10:59.537Z,20.30
2019-03-16T04:13:29.122Z,19.20
2019-03-16T04:15:58.692Z,37.33
2019-03-16T04:18:27.765Z,58.20
2019-03-16T04:20:57.742Z,38.43
2019-03-16T04:23:27.191Z,28.03
2019-03-16T04:25:56.713Z,39.87
2019-03-16T04:28:26.514Z,29.10
2019-03-16T04:30:55.755Z,20.33
2019-03-16T04:33:25.824Z,22.03
2019-03-16T04:35:55.038Z,26.67
2019-03-16T04:38:24.050Z,26.30
2019-03-16T04:40:53.453Z,31.67
2019-03-16T04:43:22.927Z,24.30
2019-03-16T04:45:52.293Z,27.23
2019-03-16T04:48:22.683Z,28.93
2019-03-16T04:50:52.681Z,26.13
2019-03-16T04:53:22.006Z,27.90
2019-03-16T04:55:52.374Z,30.17
2019-03-16T04:58:21.856Z,30.53
2019-03-16T05:00:52.036Z,25.90
2019-03-16T05:03:21.422Z,26.67
2019-03-16T05:05:52.131Z,95.37
2019-03-16T05:08:22.020Z,65.27
2019-03-16T05:10:52.283Z,88.00
2019-03-16T05:13:23.440Z,71.50
2019-03-16T05:15:52.750Z,75.33
2019-03-16T05:18:21.779Z,57.43
2019-03-16T05:20:52.799Z,47.00
2019-03-16T05:23:23.475Z,33.70
2019-03-16T05:25:52.863Z,24.40
2019-03-16T05:28:22.578Z,23.70
2019-03-16T05:30:52.583Z,25.50
2019-03-16T05:33:22.086Z,27.37
2019-03-16T05:35:53.051Z,22.60
2019-03-16T05:38:22.624Z,19.33
2019-03-16T05:40:52.806Z,21.53
2019-03-16T05:43:22.308Z,21.30
2019-03-16T05:45:51.639Z,23.87
2019-03-16T05:48:20.631Z,23.30
2019-03-16T05:50:50.623Z,25.17
2019-03-16T05:53:19.694Z,20.93
2019-03-16T05:55:50.279Z,21.87
2019-03-16T05:58:20.749Z,21.47
2019-03-16T06:00:50.278Z,24.27
2019-03-16T06:03:22.451Z,28.53
2019-03-16T06:05:52.121Z,23.07
2019-03-16T06:08:21.730Z,26.50
2019-03-16T06:10:51.335Z,29.40
2019-03-16T06:13:21.911Z,24.40
2019-03-16T06:15:51.101Z,21.87
2019-03-16T06:18:20.546Z,21.53
2019-03-16T06:20:50.553Z,22.67
2019-03-16T06:23:20.294Z,23.93
2019-03-16T06:25:51.671Z,26.80
2019-03-16T06:28:21.200Z,24.37
2019-03-16T06:30:50.694Z,19.20
2019-03-16T06:33:21.104Z,23.77
2019-03-16T06:35:51.281Z,24.43
2019-03-16T06:38:20.740Z,17.00
2019-03-16T06:40:49.743Z,18.53
2019-03-16T06:43:20.140Z,23.20
2019-03-16T06:45:49.066Z,23.13
2019-03-16T06:48:20.318Z,24.93
2019-03-16T06:50:50.779Z,16.93
2019-03-16T06:53:20.298Z,18.77
2019-03-16T06:55:49.328Z,19.13
2019-03-16T06:58:19.497Z,22.77
2019-03-16T07:00:49.084Z,19.77
2019-03-16T07:03:18.746Z,23.37
2019-03-16T07:05:47.485Z,18.47
2019-03-16T07:08:18.818Z,16.23
2019-03-16T07:10:47.866Z,26.23
2019-03-16T07:13:16.949Z,14.10
2019-03-16T07:15:46.401Z,26.17
2019-03-16T07:18:17.889Z,19.80
2019-03-16T07:20:47.331Z,25.33
2019-03-16T07:23:16.843Z,20.23
2019-03-16T07:25:46.586Z,22.43
2019-03-16T07:28:16.498Z,23.70
2019-03-16T07:30:45.821Z,14.73
2019-03-16T07:33:15.566Z,22.73
2019-03-16T07:35:45.461Z,19.27
2019-03-16T07:38:15.262Z,22.30
2019-03-16T07:40:44.486Z,21.33
2019-03-16T07:43:14.125Z,15.87
2019-03-16T07:45:44.158Z,26.63
2019-03-16T07:48:13.901Z,19.73
2019-03-16T07:50:55.335Z,17.37
2019-03-16T07:53:25.918Z,18.37
2019-03-16T07:55:55.196Z,21.17
2019-03-16T07:58:24.633Z,16.77
2019-03-16T08:00:54.545Z,19.20
2019-03-16T08:03:23.884Z,21.03
2019-03-16T08:05:54.195Z,23.33
2019-03-16T08:08:24.152Z,19.80
2019-03-16T08:10:55.707Z,19.10
2019-03-16T08:13:24.896Z,12.87
2019-03-16T08:15:55.509Z,17.93
2019-03-16T08:18:24.143Z,23.77
2019-03-16T08:20:52.786Z,13.80
2019-03-16T08:23:24.026Z,13.10
2019-03-16T08:25:54.890Z,14.47
2019-03-16T08:28:23.509Z,13.13
2019-03-16T08:30:56.628Z,14.90
2019-03-16T08:33:26.285Z,14.40
2019-03-16T08:35:57.118Z,11.63
2019-03-16T08:38:26.686Z,14.67
2019-03-16T08:40:56.162Z,14.13
2019-03-16T08:43:25.994Z,16.33
2019-03-16T08:45:55.612Z,13.33
2019-03-16T08:48:27.632Z,14.10
2019-03-16T08:50:58.007Z,18.20
2019-03-16T08:53:27.601Z,14.50
2019-03-16T08:55:57.634Z,12.77
2019-03-16T08:58:28.383Z,14.57
2019-03-16T09:00:58.526Z,17.83
2019-03-16T09:03:28.704Z,15.13
2019-03-16T09:05:57.823Z,16.20
2019-03-16T09:08:28.092Z,17.00
2019-03-16T09:10:58.596Z,13.57
2019-03-16T09:13:28.674Z,15.93
2019-03-16T09:15:59.083Z,16.30
2019-03-16T09:18:28.795Z,13.50
2019-03-16T09:20:57.776Z,14.03
2019-03-16T09:23:28.012Z,17.67
2019-03-16T09:25:57.204Z,16.50
2019-03-16T09:28:26.381Z,13.50
2019-03-16T09:30:56.599Z,13.30
2019-03-16T09:33:27.326Z,12.07
2019-03-16T09:35:57.156Z,10.83
2019-03-16T09:38:27.012Z,13.63
2019-03-16T09:40:55.506Z,15.40
2019-03-16T09:43:24.971Z,18.50
2019-03-16T09:45:55.060Z,15.70
2019-03-16T09:48:25.954Z,15.80
2019-03-16T09:50:55.329Z,17.97
2019-03-16T09:53:24.391Z,14.60
2019-03-16T09:55:53.750Z,14.87
2019-03-16T09:58:31.077Z,15.57
2019-03-16T10:00:54.803Z,14.60
2019-03-16T10:03:25.081Z,14.17
2019-03-16T10:05:55.100Z,17.03
2019-03-16T10:08:24.028Z,20.10
2019-03-16T10:10:53.002Z,17.33
2019-03-16T10:13:25.536Z,17.97
2019-03-16T10:15:55.306Z,15.20
2019-03-16T10:18:24.432Z,19.27
2019-03-16T10:20:54.416Z,15.90
2019-03-16T10:23:25.080Z,14.77
2019-03-16T10:25:55.148Z,14.43
2019-03-16T10:28:25.591Z,22.90
2019-03-16T10:30:54.997Z,15.67
2019-03-16T10:33:24.006Z,17.50
2019-03-16T10:35:52.891Z,15.83
2019-03-16T10:38:22.546Z,16.60
2019-03-16T10:40:51.784Z,12.93
2019-03-16T10:43:23.193Z,21.47
2019-03-16T10:45:53.351Z,16.87
2019-03-16T10:48:22.101Z,14.30
2019-03-16T10:50:56.736Z,16.83
2019-03-16T10:53:26.479Z,16.83
2019-03-16T10:55:56.188Z,18.17
2019-03-16T10:58:25.549Z,13.83
2019-03-16T11:00:55.779Z,20.33
2019-03-16T11:03:25.971Z,15.70
2019-03-16T11:05:55.519Z,20.53
2019-03-16T11:08:25.652Z,16.67
2019-03-16T11:10:55.030Z,14.10
2019-03-16T11:13:25.098Z,13.80
2019-03-16T11:15:54.489Z,17.00
2019-03-16T11:18:24.725Z,19.47
2019-03-16T11:20:54.211Z,11.87
2019-03-16T11:23:23.494Z,17.70
2019-03-16T11:25:54.497Z,15.13
2019-03-16T11:28:23.468Z,12.17
2019-03-16T11:30:53.925Z,16.50
2019-03-16T11:33:23.056Z,15.17
2019-03-16T11:35:53.148Z,14.10
2019-03-16T11:38:22.927Z,17.67
2019-03-16T11:40:52.279Z,16.60
2019-03-16T11:43:22.728Z,11.27
2019-03-16T11:45:52.233Z,14.73
2019-03-16T11:48:21.624Z,11.43
2019-03-16T11:50:51.255Z,17.30
2019-03-16T11:53:22.389Z,17.03
2019-03-16T11:55:54.379Z,12.23
2019-03-16T11:58:23.481Z,13.83
2019-03-16T12:00:53.246Z,12.07
2019-03-16T12:03:23.388Z,22.23
2019-03-16T12:05:53.626Z,14.97
2019-03-16T12:08:23.700Z,10.83
2019-03-16T12:10:54.198Z,10.80
2019-03-16T12:13:24.146Z,14.57
2019-03-16T12:15:53.349Z,13.90
2019-03-16T12:18:23.766Z,15.53
2019-03-16T12:20:53.051Z,12.43
2019-03-16T12:23:23.813Z,17.47
2019-03-16T12:25:55.291Z,15.80
2019-03-16T12:28:25.537Z,17.60
2019-03-16T12:30:55.255Z,13.67
2019-03-16T12:33:24.413Z,13.37
2019-03-16T12:35:55.361Z,17.30
2019-03-16T12:38:25.416Z,16.07
2019-03-16T12:40:55.736Z,17.70
2019-03-16T12:43:26.789Z,15.63
2019-03-16T12:45:55.514Z,14.20
2019-03-16T12:48:27.118Z,16.00
2019-03-16T12:50:58.819Z,15.43
2019-03-16T12:53:33.179Z,15.50
2019-03-16T12:56:05.169Z,12.77
2019-03-16T12:58:36.102Z,15.33
2019-03-16T13:01:06.664Z,13.27
2019-03-16T13:03:38.600Z,14.87
2019-03-16T13:06:08.999Z,11.87
2019-03-16T13:08:42.924Z,17.20
2019-03-16T13:11:12.971Z,13.83
2019-03-16T13:13:42.579Z,13.80
2019-03-16T13:16:11.984Z,13.73
2019-03-16T13:18:42.639Z,13.33
2019-03-16T13:21:12.052Z,14.17
2019-03-16T13:23:43.971Z,11.83
2019-03-16T13:26:14.024Z,11.10
2019-03-16T13:28:44.719Z,14.50
2019-03-16T13:31:14.124Z,14.87
2019-03-16T13:33:43.504Z,15.60
2019-03-16T13:36:12.765Z,15.13
2019-03-16T13:38:44.516Z,11.97
2019-03-16T13:41:18.287Z,17.37
2019-03-16T13:43:49.299Z,11.57
2019-03-16T13:46:18.634Z,14.80
2019-03-16T13:48:49.440Z,10.70
2019-03-16T13:51:18.901Z,12.73
2019-03-16T13:53:48.269Z,11.80
2019-03-16T13:56:19.629Z,17.27
2019-03-16T13:58:49.772Z,12.83
2019-03-16T14:01:18.697Z,13.03
2019-03-16T14:03:49.774Z,15.60
2019-03-16T14:06:19.644Z,12.17
2019-03-16T14:08:49.015Z,13.00
2019-03-16T14:11:18.496Z,16.90
2019-03-16T14:13:48.960Z,11.17
2019-03-16T14:16:18.602Z,10.33
2019-03-16T14:18:49.258Z,14.13
2019-03-16T14:21:29.912Z,14.27
2019-03-16T14:23:59.504Z,12.00
2019-03-16T14:26:29.949Z,11.27
2019-03-16T14:28:58.917Z,13.27
2019-03-16T14:31:32.784Z,14.50
2019-03-16T14:34:02.879Z,9.00
2019-03-16T14:36:35.135Z,12.70
2019-03-16T14:39:07.111Z,10.90
2019-03-16T14:41:37.382Z,13.30
2019-03-16T14:44:11.779Z,9.37
2019-03-16T14:46:42.399Z,13.60
2019-03-16T14:49:14.624Z,12.93
2019-03-16T14:51:45.331Z,14.27
2019-03-16T14:54:16.816Z,12.63
2019-03-16T14:56:46.969Z,11.67
2019-03-16T14:59:17.608Z,13.30
2019-03-16T15:01:46.993Z,12.20
2019-03-16T15:04:17.421Z,14.00
2019-03-16T15:06:47.465Z,20.47
2019-03-16T15:09:20.035Z,11.40
2019-03-16T15:11:50.809Z,10.03
2019-03-16T15:14:24.201Z,12.33
2019-03-16T15:16:54.109Z,10.47
2019-03-16T15:26:14.977Z,16.50
2019-03-16T15:28:54.773Z,12.33
